Time;durP1;ratioP1;P1;durP2;ratioP2;P2;SDS_P1;SDS_P2;PMS_P1;PMS_P2;Temp;Humidity;BMP_temperature;BMP_pressure;BME280_temperature;BME280_humidity;BME280_pressure;Samples;Min_cycle;Max_cycle;Signal;HPM_P1;HPM_P2
2023/06/24 00:00:36;;;;;;;9.77;6.57;;;14.80;99.90;;;;;;7335435;32;20194;-55
2023/06/24 00:04:39;;;;;;;7.70;6.53;;;14.80;99.90;;;;;;7333663;32;20446;-54
2023/06/24 00:08:41;;;;;;;12.80;6.22;;;14.80;99.90;;;;;;7332131;32;20138;-54
2023/06/24 00:12:43;;;;;;;8.88;6.55;;;14.70;99.90;;;;;;7334714;32;20671;-54
2023/06/24 00:16:46;;;;;;;10.73;6.55;;;14.70;99.90;;;;;;7329552;32;20526;-55
2023/06/24 00:20:49;;;;;;;11.27;6.75;;;14.80;99.90;;;;;;7328840;32;20243;-54
2023/06/24 00:24:50;;;;;;;10.82;6.90;;;14.80;99.90;;;;;;7336267;32;20225;-55
2023/06/24 00:28:52;;;;;;;12.23;6.97;;;14.70;99.90;;;;;;7330710;32;20254;-55
2023/06/24 00:32:54;;;;;;;9.05;6.07;;;14.60;99.90;;;;;;7336442;32;20209;-54
2023/06/24 00:36:56;;;;;;;10.20;6.53;;;14.70;99.90;;;;;;7337314;32;20488;-54
2023/06/24 00:40:58;;;;;;;10.45;7.07;;;14.60;99.90;;;;;;7336280;32;20095;-54
2023/06/24 00:45:03;;;;;;;10.52;6.95;;;14.50;99.90;;;;;;7341032;32;20115;-55
2023/06/24 00:49:05;;;;;;;12.85;7.10;;;14.60;99.90;;;;;;7339326;32;20349;-54
2023/06/24 00:53:07;;;;;;;17.60;7.05;;;14.60;99.90;;;;;;7338669;32;20099;-57
2023/06/24 00:57:09;;;;;;;12.05;7.25;;;14.60;99.90;;;;;;7341150;32;20219;-56
2023/06/24 01:01:11;;;;;;;12.48;7.20;;;14.50;99.90;;;;;;7336904;32;20512;-55
2023/06/24 01:05:14;;;;;;;8.75;6.30;;;14.40;99.90;;;;;;7334979;32;20154;-55
2023/06/24 01:09:15;;;;;;;10.27;6.50;;;14.50;99.90;;;;;;7336108;32;20142;-55
2023/06/24 01:13:18;;;;;;;11.40;6.35;;;14.50;99.90;;;;;;7335497;32;21395;-54
2023/06/24 01:17:29;;;;;;;11.93;7.10;;;14.50;99.90;;;;;;7340408;32;20129;-54
2023/06/24 01:21:51;;;;;;;10.02;7.45;;;14.30;99.90;;;;;;7336439;32;20106;-54
2023/06/24 01:25:58;;;;;;;11.63;6.80;;;14.30;99.90;;;;;;7335837;32;20145;-54
2023/06/24 01:30:02;;;;;;;;;;;14.30;99.90;;;;;;7338540;32;20154;-54
2023/06/24 01:34:20;;;;;;;10.68;6.55;;;14.30;99.90;;;;;;7334704;32;20517;-55
2023/06/24 01:38:30;;;;;;;11.52;6.40;;;14.30;99.90;;;;;;7337974;32;20190;-55
2023/06/24 01:42:34;;;;;;;9.82;6.30;;;14.20;99.90;;;;;;7337058;32;21043;-54
2023/06/24 01:46:37;;;;;;;13.45;7.03;;;14.30;99.90;;;;;;7337650;32;20103;-54
2023/06/24 01:50:42;;;;;;;10.00;6.57;;;14.20;99.90;;;;;;7353031;32;20121;-55
2023/06/24 01:54:46;;;;;;;8.80;6.90;;;14.20;99.90;;;;;;7348416;32;20399;-55
2023/06/24 01:58:51;;;;;;;7.97;6.53;;;14.30;99.90;;;;;;7345819;32;20192;-55
2023/06/24 02:02:54;;;;;;;8.68;6.90;;;14.20;99.90;;;;;;7348245;32;20776;-54
2023/06/24 02:07:02;;;;;;;9.48;6.87;;;14.20;99.90;;;;;;7345992;32;20768;-55
2023/06/24 02:11:04;;;;;;;10.25;6.75;;;14.20;99.90;;;;;;7340531;32;20253;-55
2023/06/24 02:15:09;;;;;;;9.63;6.93;;;14.20;99.90;;;;;;7341907;32;20254;-55
2023/06/24 02:19:11;;;;;;;9.75;7.18;;;14.20;99.90;;;;;;7345010;32;20176;-55
2023/06/24 02:23:13;;;;;;;7.75;6.20;;;14.20;99.90;;;;;;7336236;32;20553;-55
2023/06/24 02:27:16;;;;;;;12.18;7.00;;;14.20;99.90;;;;;;7348027;32;20230;-55
2023/06/24 02:31:18;;;;;;;12.98;6.75;;;14.10;99.90;;;;;;7344876;32;20196;-54
2023/06/24 02:35:20;;;;;;;10.75;7.30;;;14.10;99.90;;;;;;7341282;32;20171;-55
2023/06/24 02:39:22;;;;;;;20.00;6.97;;;14.10;99.90;;;;;;7343659;32;20229;-56
2023/06/24 02:43:24;;;;;;;11.55;7.10;;;14.10;99.90;;;;;;7341053;32;20668;-56
2023/06/24 02:47:27;;;;;;;12.77;7.45;;;14.00;99.90;;;;;;7345797;32;20107;-55
2023/06/24 02:51:30;;;;;;;10.40;6.78;;;14.00;99.90;;;;;;7343828;32;20214;-56
2023/06/24 02:55:34;;;;;;;13.10;7.18;;;14.00;99.90;;;;;;7338194;32;20095;-55
2023/06/24 02:59:37;;;;;;;10.52;7.20;;;14.00;99.90;;;;;;7347548;32;20478;-55
2023/06/24 03:03:41;;;;;;;12.27;7.80;;;14.00;99.90;;;;;;7338640;32;20164;-55
2023/06/24 03:07:43;;;;;;;10.43;7.40;;;14.00;99.90;;;;;;7343242;32;20187;-55
2023/06/24 03:11:45;;;;;;;10.13;7.82;;;13.90;99.90;;;;;;7342759;32;20836;-56
2023/06/24 03:15:47;;;;;;;14.05;7.95;;;13.90;99.90;;;;;;7344611;32;20425;-55
2023/06/24 03:19:48;;;;;;;15.75;8.10;;;14.00;99.90;;;;;;7344702;32;20979;-56
2023/06/24 03:23:50;;;;;;;10.43;7.95;;;14.00;99.90;;;;;;7338553;32;20217;-55
2023/06/24 03:27:52;;;;;;;17.80;8.85;;;14.00;99.90;;;;;;7343937;32;20095;-55
2023/06/24 03:31:54;;;;;;;15.13;7.95;;;14.00;99.90;;;;;;7343830;32;20178;-55
2023/06/24 03:35:55;;;;;;;14.85;7.12;;;14.00;99.90;;;;;;7344928;32;20103;-55
2023/06/24 03:39:57;;;;;;;15.02;8.27;;;14.00;99.90;;;;;;7342602;32;20174;-55
2023/06/24 03:43:59;;;;;;;12.93;7.70;;;14.00;99.90;;;;;;7345867;32;20126;-55
2023/06/24 03:48:01;;;;;;;13.75;7.93;;;14.10;99.90;;;;;;7332266;32;20508;-55
2023/06/24 03:52:05;;;;;;;12.37;7.85;;;14.10;99.90;;;;;;7338268;32;20205;-56
2023/06/24 03:56:06;;;;;;;11.18;8.05;;;14.10;99.90;;;;;;7346038;32;20115;-55
2023/06/24 04:00:20;;;;;;;14.25;8.32;;;14.10;99.90;;;;;;7341508;32;20269;-55
2023/06/24 04:04:23;;;;;;;14.02;8.35;;;14.20;99.90;;;;;;7340022;32;20868;-55
2023/06/24 04:08:29;;;;;;;12.85;8.30;;;14.20;99.90;;;;;;7344005;32;20601;-56
2023/06/24 04:12:30;;;;;;;12.13;7.90;;;14.20;99.90;;;;;;7345619;32;20131;-56
2023/06/24 04:16:33;;;;;;;10.45;8.35;;;14.20;99.90;;;;;;7339332;32;20572;-56
2023/06/24 04:20:34;;;;;;;12.75;8.45;;;14.30;99.90;;;;;;7333831;32;20680;-57
2023/06/24 04:24:39;;;;;;;13.27;8.88;;;14.30;99.90;;;;;;7341495;32;20117;-56
2023/06/24 04:28:40;;;;;;;15.02;8.10;;;14.20;99.90;;;;;;7343882;32;20554;-56
2023/06/24 04:32:42;;;;;;;15.38;7.70;;;14.30;99.90;;;;;;7341876;32;20208;-55
2023/06/24 04:36:44;;;;;;;13.77;9.02;;;14.50;99.90;;;;;;7341253;32;20284;-55
2023/06/24 04:40:46;;;;;;;10.50;8.82;;;14.70;99.90;;;;;;7337905;32;20587;-56
2023/06/24 04:44:50;;;;;;;15.77;8.30;;;14.80;99.90;;;;;;7335389;32;20418;-56
2023/06/24 04:48:52;;;;;;;15.13;8.60;;;15.00;99.90;;;;;;7339463;32;20104;-55
2023/06/24 04:52:56;;;;;;;12.80;8.35;;;15.30;99.90;;;;;;7339748;32;20137;-55
2023/06/24 04:56:58;;;;;;;12.18;8.48;;;15.60;99.90;;;;;;7340530;32;20114;-56
2023/06/24 05:00:59;;;;;;;10.98;8.63;;;15.90;99.90;;;;;;7337848;32;20901;-56
2023/06/24 05:05:01;;;;;;;11.38;9.25;;;16.30;99.90;;;;;;7344202;32;20676;-56
2023/06/24 05:09:03;;;;;;;11.00;9.27;;;16.70;99.90;;;;;;7339258;32;20126;-55
2023/06/24 05:13:05;;;;;;;10.50;9.32;;;17.10;99.90;;;;;;7343800;32;20182;-57
2023/06/24 05:17:06;;;;;;;12.50;9.27;;;17.50;99.90;;;;;;7342967;32;20424;-56
2023/06/24 05:21:08;;;;;;;11.20;8.18;;;17.90;99.90;;;;;;7342546;32;20321;-56
2023/06/24 05:25:10;;;;;;;12.93;7.53;;;18.40;99.90;;;;;;7337872;32;20161;-56
2023/06/24 05:29:12;;;;;;;12.07;8.07;;;18.90;99.90;;;;;;7343073;32;20125;-56
2023/06/24 05:33:14;;;;;;;9.38;7.03;;;19.30;99.90;;;;;;7334725;32;20095;-58
2023/06/24 05:37:15;;;;;;;8.23;7.28;;;19.70;99.90;;;;;;7335197;32;20186;-57
2023/06/24 05:41:17;;;;;;;11.88;8.50;;;19.50;99.90;;;;;;7329198;32;20104;-57
2023/06/24 05:45:19;;;;;;;8.57;7.25;;;19.30;99.90;;;;;;7337205;32;20202;-57
2023/06/24 05:49:20;;;;;;;10.38;8.27;;;19.30;99.90;;;;;;7331726;32;20208;-58
2023/06/24 05:53:22;;;;;;;11.48;7.97;;;19.30;99.90;;;;;;7334313;32;20741;-58
2023/06/24 05:57:24;;;;;;;12.23;8.52;;;19.40;99.90;;;;;;7340355;32;20152;-57
2023/06/24 06:01:26;;;;;;;12.55;8.00;;;19.50;99.90;;;;;;7337238;32;20818;-59
2023/06/24 06:05:28;;;;;;;13.43;9.52;;;19.50;99.90;;;;;;7329854;32;20175;-60
2023/06/24 06:09:30;;;;;;;12.45;11.12;;;19.50;99.90;;;;;;7335293;32;20229;-59
2023/06/24 06:13:32;;;;;;;14.63;11.48;;;19.50;99.90;;;;;;7335452;32;20213;-59
2023/06/24 06:17:33;;;;;;;14.80;9.93;;;19.60;99.90;;;;;;7338326;32;20221;-58
2023/06/24 06:21:37;;;;;;;15.10;11.40;;;19.90;99.90;;;;;;7334109;32;20218;-60
2023/06/24 06:25:39;;;;;;;16.62;10.82;;;19.90;99.90;;;;;;7336077;32;20108;-59
2023/06/24 06:29:41;;;;;;;14.32;10.63;;;20.00;99.90;;;;;;7331887;32;20229;-59
2023/06/24 06:33:43;;;;;;;13.20;11.40;;;19.90;99.90;;;;;;7333905;32;20099;-57
2023/06/24 06:37:51;;;;;;;17.77;11.12;;;20.00;99.90;;;;;;7335243;32;20190;-58
2023/06/24 06:41:57;;;;;;;15.05;10.20;;;20.10;99.90;;;;;;7337533;32;20257;-58
2023/06/24 06:45:59;;;;;;;15.48;12.80;;;20.30;99.90;;;;;;7334338;32;20175;-58
2023/06/24 06:50:00;;;;;;;13.45;11.70;;;20.40;99.90;;;;;;7332676;32;20186;-57
2023/06/24 06:54:02;;;;;;;14.80;11.48;;;20.40;99.90;;;;;;7332061;32;20194;-57
2023/06/24 06:58:04;;;;;;;14.82;12.40;;;20.40;99.90;;;;;;7343168;32;20195;-57
2023/06/24 07:02:06;;;;;;;15.05;12.35;;;20.40;99.90;;;;;;7342535;32;20431;-58
2023/06/24 07:06:08;;;;;;;12.15;10.75;;;20.40;99.90;;;;;;7339985;32;20362;-58
2023/06/24 07:10:10;;;;;;;16.58;12.82;;;20.60;99.90;;;;;;7341990;32;20182;-56
2023/06/24 07:14:12;;;;;;;19.87;14.32;;;20.70;99.90;;;;;;7343744;32;20118;-53
2023/06/24 07:18:14;;;;;;;15.90;14.15;;;20.90;99.90;;;;;;7344229;32;20598;-54
2023/06/24 07:22:15;;;;;;;17.50;13.68;;;21.10;99.90;;;;;;7337159;32;20257;-55
2023/06/24 07:26:17;;;;;;;16.70;13.65;;;21.20;99.90;;;;;;7333370;32;20326;-54
2023/06/24 07:30:19;;;;;;;21.52;14.27;;;21.30;99.90;;;;;;7336237;32;21363;-54
2023/06/24 07:34:20;;;;;;;16.83;13.10;;;21.40;99.90;;;;;;7334746;32;20257;-54
2023/06/24 07:38:22;;;;;;;15.80;11.68;;;21.30;99.90;;;;;;7338490;32;20288;-54
2023/06/24 07:42:24;;;;;;;20.60;12.55;;;21.50;99.90;;;;;;7335157;32;20882;-54
2023/06/24 07:46:27;;;;;;;20.90;13.05;;;21.70;99.90;;;;;;7333652;32;20644;-54
2023/06/24 07:50:30;;;;;;;16.90;11.90;;;21.90;99.90;;;;;;7341042;32;20492;-55
2023/06/24 07:54:33;;;;;;;14.10;11.32;;;22.10;99.90;;;;;;7343450;32;20527;-54
2023/06/24 07:58:37;;;;;;;14.75;10.48;;;22.00;99.90;;;;;;7336283;32;20239;-54
2023/06/24 08:02:40;;;;;;;12.93;9.07;;;22.30;99.90;;;;;;7343339;32;20111;-54
2023/06/24 08:06:42;;;;;;;15.75;9.07;;;22.70;99.90;;;;;;7342666;32;20206;-54
2023/06/24 08:10:44;;;;;;;11.60;8.00;;;22.80;99.90;;;;;;7340156;32;20115;-60
2023/06/24 08:14:46;;;;;;;13.40;7.55;;;22.90;99.90;;;;;;7333800;32;20246;-55
2023/06/24 08:18:47;;;;;;;8.75;6.60;;;22.90;99.90;;;;;;7341533;32;20159;-55
2023/06/24 08:22:49;;;;;;;9.63;7.35;;;22.90;99.90;;;;;;7343985;32;21136;-56
2023/06/24 08:26:52;;;;;;;9.18;6.78;;;23.00;99.90;;;;;;7340088;32;20202;-56
2023/06/24 08:30:54;;;;;;;9.65;7.65;;;23.10;99.90;;;;;;7339871;32;20104;-56
2023/06/24 08:34:56;;;;;;;10.20;7.57;;;23.30;99.90;;;;;;7341725;32;20234;-55
2023/06/24 08:38:58;;;;;;;11.75;6.70;;;23.50;99.90;;;;;;7342772;32;20904;-54
2023/06/24 08:43:00;;;;;;;8.23;6.60;;;23.90;99.90;;;;;;7344304;32;22754;-55
2023/06/24 08:47:01;;;;;;;7.50;5.87;;;24.00;99.90;;;;;;7342664;32;20747;-55
2023/06/24 08:51:06;;;;;;;8.32;5.10;;;24.40;99.90;;;;;;7347629;32;20111;-55
2023/06/24 08:55:16;;;;;;;7.85;6.65;;;24.90;99.90;;;;;;7339026;32;20206;-55
2023/06/24 08:59:19;;;;;;;9.00;5.68;;;25.10;99.90;;;;;;7341325;32;20125;-57
2023/06/24 09:03:22;;;;;;;8.23;7.30;;;25.40;99.90;;;;;;7339376;32;20562;-56
2023/06/24 09:07:30;;;;;;;7.00;5.68;;;25.80;99.90;;;;;;7349065;32;20172;-55
2023/06/24 09:11:32;;;;;;;11.02;6.65;;;25.90;99.90;;;;;;7348854;32;20346;-55
2023/06/24 09:15:36;;;;;;;10.27;6.05;;;25.90;99.90;;;;;;7347465;32;20117;-55
2023/06/24 09:19:39;;;;;;;9.63;7.70;;;26.50;99.90;;;;;;7342582;32;20122;-55
2023/06/24 09:23:40;;;;;;;9.20;6.85;;;26.50;99.90;;;;;;7341246;32;22306;-55
2023/06/24 09:27:52;;;;;;;8.32;5.60;;;26.20;99.90;;;;;;7345805;32;20168;-55
2023/06/24 09:31:55;;;;;;;7.90;5.65;;;26.00;99.90;;;;;;7345597;32;20205;-56
2023/06/24 09:35:57;;;;;;;8.55;5.35;;;26.10;99.90;;;;;;7342860;32;20126;-55
2023/06/24 09:40:01;;;;;;;9.32;5.32;;;26.40;99.90;;;;;;7344525;32;20119;-55
2023/06/24 09:44:07;;;;;;;7.65;5.85;;;27.10;99.90;;;;;;7345271;32;20103;-55
2023/06/24 09:48:09;;;;;;;6.68;4.45;;;27.20;99.90;;;;;;7334343;32;20231;-58
2023/06/24 09:52:15;;;;;;;7.12;3.85;;;27.40;99.90;;;;;;7337299;32;20130;-58
2023/06/24 09:56:18;;;;;;;3.67;3.00;;;28.00;99.90;;;;;;7336578;32;20259;-58
2023/06/24 10:00:21;;;;;;;5.30;4.07;;;28.40;99.90;;;;;;7334649;32;20261;-58
2023/06/24 10:04:24;;;;;;;7.28;4.20;;;28.70;99.70;;;;;;7338534;32;20222;-59
2023/06/24 10:08:27;;;;;;;5.62;4.20;;;28.90;99.90;;;;;;7334465;32;20595;-58
2023/06/24 10:12:29;;;;;;;8.15;4.50;;;28.90;99.90;;;;;;7337608;32;20186;-58
2023/06/24 10:16:31;;;;;;;7.05;4.82;;;28.90;99.40;;;;;;7330021;32;20205;-58
2023/06/24 10:20:37;;;;;;;5.70;4.32;;;29.00;97.90;;;;;;7339244;32;20235;-58
2023/06/24 10:24:41;;;;;;;6.47;3.90;;;29.00;97.10;;;;;;7338179;32;21008;-56
2023/06/24 10:29:05;;;;;;;9.38;4.25;;;29.00;98.20;;;;;;7334573;32;20567;-56
2023/06/24 10:33:10;;;;;;;6.25;4.50;;;29.40;98.40;;;;;;7332888;32;20250;-57
2023/06/24 10:37:24;;;;;;;5.25;4.18;;;29.40;95.10;;;;;;7337961;32;21145;-56
2023/06/24 10:41:25;;;;;;;5.47;3.35;;;29.30;97.20;;;;;;7335841;32;20202;-57
2023/06/24 10:45:27;;;;;;;7.30;3.60;;;29.50;94.50;;;;;;7335950;32;20306;-58
2023/06/24 10:49:29;;;;;;;11.45;3.70;;;29.20;91.70;;;;;;7340486;32;20186;-57
2023/06/24 10:53:31;;;;;;;5.55;3.50;;;29.30;94.70;;;;;;7339841;32;20208;-58
2023/06/24 10:57:33;;;;;;;5.18;4.28;;;29.20;88.30;;;;;;7343972;32;20091;-58
2023/06/24 11:01:35;;;;;;;6.97;4.37;;;29.00;91.40;;;;;;7346134;32;20148;-58
2023/06/24 11:05:44;;;;;;;8.40;4.78;;;29.20;94.40;;;;;;7344384;32;20213;-57
2023/06/24 11:09:55;;;;;;;5.57;4.20;;;28.80;92.60;;;;;;7343976;32;20161;-58
2023/06/24 11:13:58;;;;;;;7.25;3.53;;;29.00;94.70;;;;;;7345824;32;20290;-58
2023/06/24 11:18:02;;;;;;;6.30;3.60;;;29.20;92.70;;;;;;7344495;32;20119;-59
2023/06/24 11:22:06;;;;;;;8.95;3.97;;;29.10;90.70;;;;;;7349425;32;20268;-58
2023/06/24 11:26:07;;;;;;;5.47;3.10;;;28.80;91.00;;;;;;7342697;32;20594;-57
2023/06/24 11:30:10;;;;;;;4.18;3.30;;;29.10;85.70;;;;;;7344608;32;20246;-57
2023/06/24 11:34:12;;;;;;;4.70;3.08;;;29.00;86.80;;;;;;7342060;32;20272;-57
2023/06/24 11:38:14;;;;;;;6.47;3.15;;;29.10;90.10;;;;;;7336779;32;20205;-57
2023/06/24 11:42:15;;;;;;;5.40;3.17;;;29.10;84.80;;;;;;7335919;32;20269;-58
2023/06/24 11:46:36;;;;;;;5.78;2.80;;;29.10;86.60;;;;;;7338958;32;20210;-58
2023/06/24 11:50:38;;;;;;;4.93;2.70;;;29.30;83.70;;;;;;7328063;32;20344;-58
2023/06/24 11:54:43;;;;;;;8.73;3.10;;;29.20;82.60;;;;;;7336210;32;20273;-57
2023/06/24 11:58:49;;;;;;;6.68;3.03;;;29.40;83.00;;;;;;7334576;32;20234;-58
2023/06/24 12:02:55;;;;;;;6.22;3.20;;;29.30;86.70;;;;;;7335841;32;20250;-55
2023/06/24 12:06:58;;;;;;;5.97;3.15;;;29.40;83.70;;;;;;7332389;32;20239;-55
2023/06/24 12:11:00;;;;;;;6.28;3.12;;;29.50;87.10;;;;;;7327464;32;20220;-55
2023/06/24 12:15:01;;;;;;;6.82;3.00;;;29.80;83.70;;;;;;7332021;32;20307;-55
2023/06/24 12:19:03;;;;;;;6.82;3.03;;;30.50;87.20;;;;;;7335765;32;20108;-56
2023/06/24 12:23:05;;;;;;;3.58;2.60;;;31.00;81.10;;;;;;7343909;32;20123;-60
2023/06/24 12:27:07;;;;;;;6.60;3.28;;;31.40;79.70;;;;;;7352050;32;20838;-58
2023/06/24 12:31:11;;;;;;;4.50;3.25;;;30.80;76.80;;;;;;7344990;32;20172;-57
2023/06/24 12:35:13;;;;;;;6.62;3.00;;;30.40;82.90;;;;;;7352000;32;20265;-59
2023/06/24 12:39:14;;;;;;;5.25;3.00;;;30.60;77.00;;;;;;7354089;32;20143;-59
2023/06/24 12:43:21;;;;;;;9.10;3.00;;;30.40;79.80;;;;;;7352179;32;20187;-58
2023/06/24 12:47:22;;;;;;;4.18;2.70;;;30.90;75.20;;;;;;7348226;32;20243;-57
2023/06/24 12:51:24;;;;;;;3.78;2.53;;;31.30;75.30;;;;;;7350553;32;20099;-57
2023/06/24 12:55:26;;;;;;;6.10;2.37;;;31.10;67.40;;;;;;7353358;32;20215;-57
2023/06/24 12:59:28;;;;;;;4.12;2.37;;;30.80;69.30;;;;;;7352411;32;20122;-58
2023/06/24 13:03:29;;;;;;;4.18;2.28;;;30.50;68.60;;;;;;7351289;32;20134;-57
2023/06/24 13:07:31;;;;;;;3.70;2.08;;;30.50;63.70;;;;;;7350479;32;20129;-60
2023/06/24 13:11:33;;;;;;;2.40;2.00;;;30.70;64.50;;;;;;7349996;32;20103;-57
2023/06/24 13:15:35;;;;;;;4.55;2.08;;;30.80;61.10;;;;;;7353765;32;20242;-59
2023/06/24 13:19:37;;;;;;;2.60;1.80;;;30.60;57.90;;;;;;7351936;32;20191;-58
2023/06/24 13:23:39;;;;;;;3.53;1.80;;;30.60;62.70;;;;;;7351969;32;20698;-58
2023/06/24 13:27:41;;;;;;;3.08;2.08;;;30.30;60.70;;;;;;7353216;32;20213;-57
2023/06/24 13:31:43;;;;;;;2.65;2.00;;;30.20;63.90;;;;;;7346550;32;20284;-57
2023/06/24 13:35:45;;;;;;;2.70;2.00;;;30.20;58.80;;;;;;7352556;32;20183;-58
2023/06/24 13:39:47;;;;;;;3.22;1.77;;;30.20;61.80;;;;;;7349885;32;20354;-57
2023/06/24 13:43:50;;;;;;;2.62;1.85;;;30.20;57.00;;;;;;7347494;32;20554;-57
2023/06/24 13:47:51;;;;;;;2.53;1.80;;;30.60;57.40;;;;;;7348686;32;20204;-57
2023/06/24 13:51:53;;;;;;;2.33;1.80;;;30.50;57.30;;;;;;7345019;32;20450;-57
2023/06/24 13:55:55;;;;;;;2.10;1.52;;;30.30;56.00;;;;;;7332090;32;20094;-58
2023/06/24 13:59:56;;;;;;;1.90;1.62;;;30.50;55.50;;;;;;7339924;32;20342;-57
2023/06/24 14:03:58;;;;;;;3.15;1.83;;;30.50;54.10;;;;;;7346758;32;20107;-57
2023/06/24 14:08:00;;;;;;;3.97;1.73;;;30.70;56.80;;;;;;7351604;32;20166;-57
2023/06/24 14:12:02;;;;;;;2.35;1.80;;;30.40;56.60;;;;;;7344390;32;20149;-59
2023/06/24 14:16:05;;;;;;;3.28;2.00;;;30.20;53.70;;;;;;7348560;32;20099;-57
2023/06/24 14:20:07;;;;;;;2.40;1.80;;;30.90;53.80;;;;;;7342605;32;20653;-57
2023/06/24 14:24:11;;;;;;;2.30;1.80;;;31.30;54.80;;;;;;7345701;32;20103;-57
2023/06/24 14:28:18;;;;;;;2.65;1.80;;;31.50;53.60;;;;;;7346368;32;20399;-58
2023/06/24 14:32:19;;;;;;;2.58;1.85;;;31.10;57.00;;;;;;7345197;32;20334;-58
2023/06/24 14:36:21;;;;;;;3.22;1.77;;;31.30;51.50;;;;;;7341205;32;20119;-57
2023/06/24 14:40:23;;;;;;;2.25;1.75;;;31.30;55.10;;;;;;7342233;32;20197;-58
2023/06/24 14:44:25;;;;;;;3.45;2.05;;;31.20;54.30;;;;;;7342790;32;20129;-58
2023/06/24 14:48:27;;;;;;;2.42;1.62;;;31.30;52.30;;;;;;7340613;32;20471;-57
2023/06/24 14:52:28;;;;;;;1.92;1.52;;;31.40;49.90;;;;;;7335929;32;20152;-57
2023/06/24 14:56:30;;;;;;;1.95;1.70;;;31.60;48.40;;;;;;7343966;32;20555;-57
2023/06/24 15:00:32;;;;;;;2.00;1.77;;;31.60;48.80;;;;;;7345468;32;20106;-57
2023/06/24 15:04:36;;;;;;;2.20;1.77;;;31.90;50.70;;;;;;7342841;32;20234;-57
2023/06/24 15:08:38;;;;;;;2.67;1.80;;;31.80;50.40;;;;;;7341794;32;20125;-57
2023/06/24 15:12:40;;;;;;;5.05;1.98;;;32.10;50.00;;;;;;7343829;32;20139;-58
2023/06/24 15:16:41;;;;;;;2.42;1.70;;;32.20;50.40;;;;;;7341148;32;20514;-57
2023/06/24 15:20:43;;;;;;;2.08;1.73;;;31.90;49.40;;;;;;7345241;32;20111;-58
2023/06/24 15:24:45;;;;;;;2.12;1.67;;;32.00;47.70;;;;;;7339098;32;20218;-58
2023/06/24 15:28:47;;;;;;;2.90;2.00;;;31.40;49.90;;;;;;7344525;32;20193;-59
2023/06/24 15:32:49;;;;;;;2.28;1.87;;;30.40;49.90;;;;;;7336903;32;20174;-58
2023/06/24 15:36:51;;;;;;;3.03;1.42;;;29.80;51.20;;;;;;7334266;32;20541;-58
2023/06/24 15:40:52;;;;;;;2.35;1.70;;;29.40;53.40;;;;;;7342615;32;20578;-58
2023/06/24 15:44:54;;;;;;;2.72;2.08;;;28.70;55.10;;;;;;7343228;32;20100;-58
2023/06/24 15:48:56;;;;;;;2.72;2.00;;;28.50;56.50;;;;;;7337129;32;20111;-58
2023/06/24 15:52:58;;;;;;;2.00;1.77;;;28.60;56.80;;;;;;7339594;32;20100;-58
2023/06/24 15:57:00;;;;;;;3.45;2.10;;;28.10;53.80;;;;;;7341102;32;20129;-58
2023/06/24 16:01:01;;;;;;;2.35;1.90;;;27.80;57.00;;;;;;7341966;32;20221;-58
2023/06/24 16:05:05;;;;;;;2.12;1.83;;;27.90;57.00;;;;;;7341825;32;20103;-58
2023/06/24 16:09:07;;;;;;;3.87;2.00;;;27.70;57.70;;;;;;7341361;32;20741;-57
2023/06/24 16:13:09;;;;;;;2.58;1.90;;;27.80;54.30;;;;;;7344556;32;20519;-58
2023/06/24 16:17:11;;;;;;;3.05;1.92;;;27.60;56.70;;;;;;7349961;32;20214;-57
2023/06/24 16:21:13;;;;;;;2.90;2.22;;;27.40;57.20;;;;;;7335520;32;20108;-58
2023/06/24 16:25:15;;;;;;;2.47;1.85;;;27.40;56.70;;;;;;7341310;32;20157;-57
2023/06/24 16:29:17;;;;;;;2.37;1.90;;;27.40;57.50;;;;;;7339346;32;20305;-57
2023/06/24 16:33:18;;;;;;;3.33;1.90;;;27.30;56.60;;;;;;7340000;32;20180;-58
2023/06/24 16:37:20;;;;;;;3.33;2.22;;;27.30;58.00;;;;;;7339437;32;20240;-57
2023/06/24 16:41:22;;;;;;;5.37;2.10;;;27.00;58.50;;;;;;7333972;32;20152;-56
2023/06/24 16:45:24;;;;;;;2.47;2.03;;;27.10;54.20;;;;;;7333858;32;20606;-57
2023/06/24 16:49:26;;;;;;;3.45;2.20;;;26.90;55.80;;;;;;7341677;32;20122;-57
2023/06/24 16:53:28;;;;;;;3.75;1.87;;;26.90;56.30;;;;;;7347672;32;23779;-57
2023/06/24 16:57:29;;;;;;;3.97;2.28;;;26.80;57.40;;;;;;7341883;32;20243;-57
2023/06/24 17:01:32;;;;;;;4.78;2.47;;;26.80;58.10;;;;;;7344741;32;20148;-57
2023/06/24 17:05:37;;;;;;;3.67;2.50;;;26.60;59.40;;;;;;7344435;32;20107;-57
2023/06/24 17:09:40;;;;;;;3.33;2.42;;;26.70;57.70;;;;;;7327380;32;20106;-58
2023/06/24 17:13:41;;;;;;;3.42;2.50;;;26.70;58.10;;;;;;7328402;32;20927;-58
2023/06/24 17:17:43;;;;;;;4.62;2.22;;;26.60;57.60;;;;;;7334166;32;20217;-57
2023/06/24 17:21:45;;;;;;;2.90;2.08;;;26.50;59.10;;;;;;7320458;32;20403;-59
2023/06/24 17:25:47;;;;;;;2.90;2.22;;;26.70;56.80;;;;;;7336475;32;20193;-58
2023/06/24 17:29:54;;;;;;;3.22;2.53;;;26.50;58.70;;;;;;7350999;32;20158;-57
2023/06/24 17:33:56;;;;;;;2.97;2.55;;;26.50;57.80;;;;;;7353002;32;20119;-57
2023/06/24 17:38:00;;;;;;;4.07;2.42;;;26.40;59.40;;;;;;7351209;32;20731;-57
2023/06/24 17:42:02;;;;;;;3.15;2.33;;;26.40;62.30;;;;;;7353261;32;20672;-57
2023/06/24 17:46:03;;;;;;;2.97;2.47;;;26.20;64.20;;;;;;7351874;32;20290;-56
2023/06/24 17:50:05;;;;;;;4.07;2.70;;;26.10;63.00;;;;;;7353438;32;20153;-58
2023/06/24 17:54:07;;;;;;;3.58;2.75;;;26.00;64.10;;;;;;7350221;32;20214;-58
2023/06/24 17:58:09;;;;;;;3.72;2.62;;;25.80;66.00;;;;;;7350681;32;20177;-57
2023/06/24 18:02:11;;;;;;;3.42;2.50;;;25.70;67.10;;;;;;7350738;32;20162;-57
2023/06/24 18:06:12;;;;;;;6.03;2.62;;;25.60;66.30;;;;;;7348570;32;20230;-57
2023/06/24 18:10:14;;;;;;;3.67;2.40;;;25.60;68.90;;;;;;7353117;32;20119;-57
2023/06/24 18:14:16;;;;;;;4.85;2.05;;;25.60;72.40;;;;;;7348575;32;20801;-59
2023/06/24 18:18:18;;;;;;;4.12;2.40;;;25.40;77.50;;;;;;7353230;32;20135;-58
2023/06/24 18:22:20;;;;;;;3.72;2.45;;;25.30;84.80;;;;;;7351407;32;20170;-57
2023/06/24 18:26:25;;;;;;;4.35;2.25;;;25.10;88.10;;;;;;7351622;32;20135;-58
2023/06/24 18:30:27;;;;;;;2.75;2.10;;;25.00;91.80;;;;;;7347866;32;20352;-58
2023/06/24 18:34:29;;;;;;;4.40;2.40;;;24.90;95.60;;;;;;7353716;32;20178;-58
2023/06/24 18:38:30;;;;;;;5.28;2.72;;;24.70;99.90;;;;;;7347736;32;20171;-58
2023/06/24 18:42:32;;;;;;;5.47;3.03;;;24.60;99.90;;;;;;7347936;32;20204;-58
2023/06/24 18:46:34;;;;;;;5.47;3.10;;;24.50;99.90;;;;;;7348306;32;21831;-58
2023/06/24 18:50:35;;;;;;;8.23;5.12;;;24.20;99.90;;;;;;7340206;32;20325;-58
2023/06/24 18:54:37;;;;;;;9.27;6.82;;;24.00;99.90;;;;;;7346711;32;20133;-58
2023/06/24 18:58:39;;;;;;;10.13;4.72;;;23.70;99.90;;;;;;7344694;32;20786;-58
2023/06/24 19:02:42;;;;;;;5.95;4.03;;;23.40;99.90;;;;;;7336575;32;20241;-58
2023/06/24 19:06:45;;;;;;;5.00;4.00;;;23.20;99.90;;;;;;7348831;32;20126;-57
2023/06/24 19:10:46;;;;;;;7.05;4.65;;;23.00;99.90;;;;;;7343079;32;20139;-57
2023/06/24 19:14:48;;;;;;;8.05;5.07;;;22.80;99.90;;;;;;7343978;32;20297;-57
2023/06/24 19:18:51;;;;;;;7.20;4.60;;;22.50;99.90;;;;;;7348037;32;20769;-57
2023/06/24 19:22:52;;;;;;;8.18;6.25;;;22.20;99.90;;;;;;7345863;32;20115;-58
2023/06/24 19:26:54;;;;;;;11.18;6.53;;;22.10;99.90;;;;;;7335411;32;20727;-58
2023/06/24 19:30:56;;;;;;;12.20;5.90;;;21.90;99.90;;;;;;7341691;32;20111;-57
2023/06/24 19:35:01;;;;;;;7.87;5.82;;;21.70;99.90;;;;;;7349882;32;20269;-58
2023/06/24 19:39:03;;;;;;;8.57;4.57;;;21.30;99.90;;;;;;7350156;32;20240;-58
2023/06/24 19:43:04;;;;;;;7.20;3.55;;;21.00;99.90;;;;;;7349550;32;20208;-57
2023/06/24 19:47:06;;;;;;;9.57;3.80;;;20.80;99.90;;;;;;7348676;32;20162;-58
2023/06/24 19:51:08;;;;;;;7.03;3.65;;;20.50;99.90;;;;;;7348252;32;20315;-57
2023/06/24 19:55:10;;;;;;;5.53;3.00;;;20.40;99.90;;;;;;7348445;32;20122;-57
2023/06/24 19:59:12;;;;;;;6.25;3.25;;;20.20;99.90;;;;;;7348555;32;20562;-58
2023/06/24 20:03:14;;;;;;;10.38;3.42;;;20.00;99.90;;;;;;7349645;32;20111;-57
2023/06/24 20:07:15;;;;;;;5.62;3.30;;;19.80;99.90;;;;;;7344832;32;20111;-56
2023/06/24 20:11:18;;;;;;;7.18;3.30;;;19.60;99.90;;;;;;7344485;32;20333;-56
2023/06/24 20:15:20;;;;;;;8.00;3.60;;;19.40;99.90;;;;;;7344686;32;20119;-56
2023/06/24 20:19:22;;;;;;;7.95;3.80;;;19.30;99.90;;;;;;7341837;32;20119;-56
2023/06/24 20:23:25;;;;;;;6.80;4.25;;;19.20;99.90;;;;;;7346577;32;20219;-56
2023/06/24 20:27:28;;;;;;;10.05;4.55;;;18.90;99.90;;;;;;7350599;32;20230;-56
2023/06/24 20:31:29;;;;;;;10.88;4.15;;;18.70;99.90;;;;;;7346975;32;20267;-56
2023/06/24 20:35:31;;;;;;;9.32;4.37;;;18.70;99.90;;;;;;7346781;32;20507;-56
2023/06/24 20:39:33;;;;;;;6.82;5.20;;;18.50;99.90;;;;;;7347399;32;20252;-56
2023/06/24 20:43:35;;;;;;;6.50;5.07;;;18.40;99.90;;;;;;7354983;32;20249;-55
2023/06/24 20:47:37;;;;;;;8.02;4.90;;;18.20;99.90;;;;;;7351997;32;20145;-57
2023/06/24 20:51:44;;;;;;;6.85;4.97;;;18.10;99.90;;;;;;7356086;32;20135;-56
2023/06/24 20:55:46;;;;;;;11.10;4.87;;;18.10;99.90;;;;;;7351705;32;20216;-56